San Ardo, CA (93450)

11:00 PM PDT on September 19, 2014 (GMT -0700)
Heritage Ranch Riverview Complex | Change Station
CLOSE
Current Station
Personal Weather Station
Location: Heritage Ranch, CA
Elevation: 1082 ft
Nearby Weather Stations

Elev 1082 ft 35.74 °N, 120.87 °W | Updated 11 minutes ago

Partly Cloudy
Partly Cloudy
63.4 °F
Feels Like 63.4 °F
N
3.0
Wind Variable Wind from NNE
Gusts 7.0 mph

Today
High -- | Low -- °F
--% Chance of Precip.
Yesterday
High -- | Low -- °F
Precip. -- in
6:49 AM 7:04 PM
Waning Crescent, 14% visible
Pressure 29.90 in
Visibility 10.0 miles
Clouds Clear
Dew Point 58 °F
Humidity 81%
Rainfall 0.00 in
Snow Depth 1 in , 3 in , 0 in
UV 0 out of 12
Pollen 5.90 out of 12
Air Quality Not available.
Flu Activity Not available.
METAR KPRB 200553Z AUTO 33004KT 10SM CLR 19/13 A2990 RMK AO2 SLPNO T01890133 10294 20183 51014 TSNO $

More Conditions Fewer Conditions

Pressure 29.90 in
Visibility 10.0 miles
Clouds Clear
Dew Point 58 °F
Humidity 81%
Rainfall 0.00 in
Snow Depth 1 in , 3 in , 0 in
UV 0 out of 12
Pollen 5.90 out of 12
Air Quality Not available.
Flu Activity Not available.
METAR KPRB 200553Z AUTO 33004KT 10SM CLR 19/13 A2990 RMK AO2 SLPNO T01890133 10294 20183 51014 TSNO $

More Conditions Fewer Conditions

10-Day Weather Forecast

Almanac

Astronomy

Sep. 19, 2014 Rise Set
Actual Time 6:49 AM PDT 7:04 PM PDT
Civil Twilight 6:23 AM PDT 7:30 PM PDT
Nautical Twilight 5:53 AM PDT 8:00 PM PDT
Astronomical Twilight 5:23 AM PDT 8:30 PM PDT
Moon 2:45 AM PDT (9/19) 4:31 PM PDT (9/19)
Length of Visible Light 13h 06m
Length of Day
12h 15m
Tomorrow will be 2m 16s shorter.
Waning Crescent, 14% of the Moon is Illuminated
Sep 20
Waning Crescent
Sep 24
New
Oct 1
First Quarter
Oct 8
Full
Oct 15
Last Quarter

Yesterday's Extremes

State Highs State Lows

Community

WunderPhotos

Upload Photos

1,754,777 photos uploaded!

WunderBlogs® & News

Nearby

Snow Depth

Station Depth Elevation
Leavitt Meadows 1 in 7200 ft
CSS Lab 3 in 6900 ft
Squaw Valley 0 in 8200 ft
Summit Meadow 1 in 9122 ft
Tahoe City Cross 0 in 6750 ft

Earthquake Activity

City Distance Mag. Time & Date
Livermore, California 123 miles 2.6 3:37 AM PDT
2014-09-19
Corcoran, California 70 miles 2.9 3:59 PM PDT
2014-09-18
Minimum magnitude displayed is 2.5.

Coastal Water Temperatures

Place Temperature
No Stations Reporting

Nearby Weather Stations